createdAt,value
2022-08-02T00:00:56.446Z,2.63
2022-08-02T00:01:58.832Z,2.00
2022-08-02T00:03:00.867Z,2.17
2022-08-02T00:04:03.010Z,2.28
2022-08-02T00:05:05.666Z,2.10
2022-08-02T00:06:07.606Z,2.50
2022-08-02T00:07:09.431Z,2.35
2022-08-02T00:08:13.128Z,2.15
2022-08-02T00:09:15.224Z,2.03
2022-08-02T00:10:17.101Z,2.35
2022-08-02T00:11:18.967Z,2.55
2022-08-02T00:12:23.591Z,2.28
2022-08-02T00:13:25.427Z,2.13
2022-08-02T00:14:27.276Z,2.67
2022-08-02T00:15:29.135Z,2.40
2022-08-02T00:16:38.263Z,2.40
2022-08-02T00:17:40.963Z,2.53
2022-08-02T00:18:43.178Z,2.28
2022-08-02T00:19:45.194Z,2.10
2022-08-02T00:20:46.992Z,2.20
2022-08-02T00:21:48.825Z,2.20
2022-08-02T00:22:50.632Z,2.10
2022-08-02T00:24:27.640Z,2.27
2022-08-02T00:25:14.715Z,2.22
2022-08-02T00:26:17.620Z,2.00
2022-08-02T00:27:19.505Z,2.20
2022-08-02T00:28:26.917Z,2.60
2022-08-02T00:29:32.754Z,2.47
2022-08-02T00:30:34.586Z,2.38
2022-08-02T00:31:36.511Z,2.83
2022-08-02T00:32:38.414Z,2.20
2022-08-02T00:34:26.938Z,2.45
2022-08-02T00:35:02.181Z,1.87
2022-08-02T00:36:04.506Z,2.50
2022-08-02T00:37:06.376Z,2.00
2022-08-02T00:38:08.411Z,2.10
2022-08-02T00:39:34.441Z,2.05
2022-08-02T00:40:32.218Z,1.95
2022-08-02T00:41:34.058Z,1.90
2022-08-02T00:42:35.952Z,2.35
2022-08-02T00:43:37.850Z,2.35
2022-08-02T00:44:39.667Z,1.83
2022-08-02T00:46:02.210Z,2.60
2022-08-02T00:47:04.786Z,2.45
2022-08-02T00:48:17.210Z,2.45
2022-08-02T00:49:21.135Z,2.10
2022-08-02T00:50:24.426Z,2.20
2022-08-02T00:51:26.279Z,2.30
2022-08-02T00:52:28.206Z,2.08
2022-08-02T00:53:30.099Z,2.35
2022-08-02T00:54:32.432Z,2.30
2022-08-02T00:55:34.627Z,2.20
2022-08-02T00:56:36.660Z,2.13
2022-08-02T00:57:38.473Z,2.47
2022-08-02T00:58:41.676Z,2.00
2022-08-02T00:59:43.567Z,2.00
2022-08-02T01:00:45.388Z,2.38
2022-08-02T01:01:56.160Z,2.30
2022-08-02T01:03:00.471Z,1.70
2022-08-02T01:04:02.331Z,1.80
2022-08-02T01:05:06.524Z,2.10
2022-08-02T01:06:12.143Z,2.25
2022-08-02T01:07:14.691Z,1.93
2022-08-02T01:08:19.612Z,2.50
2022-08-02T01:09:22.001Z,2.30
2022-08-02T01:10:24.548Z,1.90
2022-08-02T01:11:26.590Z,1.90
2022-08-02T01:12:28.937Z,2.03
2022-08-02T01:13:31.638Z,1.92
2022-08-02T01:14:34.499Z,2.10
2022-08-02T01:15:44.067Z,2.72
2022-08-02T01:17:15.344Z,2.20
2022-08-02T01:18:38.596Z,2.30
2022-08-02T01:19:51.416Z,1.95
2022-08-02T01:21:12.457Z,1.88
2022-08-02T01:23:01.703Z,2.10
2022-08-02T01:24:36.509Z,1.88
2022-08-02T01:26:02.275Z,2.63
2022-08-02T01:27:43.186Z,1.85
2022-08-02T01:29:03.719Z,1.92
2022-08-02T01:30:07.305Z,2.28
2022-08-02T01:31:19.664Z,2.03
2022-08-02T01:32:28.023Z,2.27
2022-08-02T01:33:36.593Z,2.80
2022-08-02T01:34:53.772Z,2.13
2022-08-02T01:35:57.678Z,2.33
2022-08-02T01:37:06.466Z,2.53
2022-08-02T01:38:18.089Z,1.63
2022-08-02T01:39:27.726Z,1.92
2022-08-02T01:40:58.610Z,2.28
2022-08-02T01:42:02.515Z,1.90
2022-08-02T01:43:06.564Z,1.90
2022-08-02T01:44:19.013Z,2.20
2022-08-02T01:45:35.349Z,2.08
2022-08-02T01:46:41.432Z,1.60
2022-08-02T01:47:45.917Z,1.63
2022-08-02T01:48:49.393Z,2.38
2022-08-02T01:49:54.969Z,2.08
2022-08-02T01:50:58.186Z,2.15
2022-08-02T01:52:21.617Z,2.13
2022-08-02T01:53:27.092Z,2.22
2022-08-02T01:54:32.782Z,2.20
2022-08-02T01:55:57.601Z,1.50
2022-08-02T01:57:03.984Z,1.63
2022-08-02T01:58:08.034Z,2.17
2022-08-02T01:59:13.904Z,2.20
2022-08-02T02:00:17.179Z,1.90
2022-08-02T02:01:21.292Z,1.80
2022-08-02T02:02:27.028Z,1.80
2022-08-02T02:03:48.640Z,1.92
2022-08-02T02:04:52.878Z,2.05
2022-08-02T02:05:58.671Z,2.22
2022-08-02T02:07:02.014Z,1.83
2022-08-02T02:08:05.965Z,2.28
2022-08-02T02:09:08.930Z,1.73
2022-08-02T02:10:15.618Z,2.20
2022-08-02T02:12:09.554Z,2.15
2022-08-02T02:12:40.347Z,1.52
2022-08-02T02:13:43.236Z,1.80
2022-08-02T02:14:51.788Z,1.90
2022-08-02T02:15:56.299Z,2.05
2022-08-02T02:16:59.585Z,1.92
2022-08-02T02:18:12.680Z,2.07
2022-08-02T02:19:21.112Z,2.50
2022-08-02T02:20:23.901Z,1.83
2022-08-02T02:21:25.957Z,2.40
2022-08-02T02:22:27.853Z,2.58
2022-08-02T02:23:30.176Z,2.58
2022-08-02T02:24:37.729Z,1.63
2022-08-02T02:25:46.898Z,2.45
2022-08-02T02:26:52.509Z,2.70
2022-08-02T02:28:06.889Z,2.20
2022-08-02T02:29:11.209Z,2.10
2022-08-02T02:30:13.494Z,1.98
2022-08-02T02:31:19.256Z,1.77
2022-08-02T02:32:22.728Z,2.10
2022-08-02T02:33:29.337Z,2.10
2022-08-02T02:34:38.591Z,2.17
2022-08-02T02:35:42.218Z,2.50
2022-08-02T02:36:50.501Z,2.20
2022-08-02T02:37:54.856Z,2.10
2022-08-02T02:39:04.176Z,2.42
2022-08-02T02:40:08.497Z,2.30
2022-08-02T02:41:11.643Z,2.40
2022-08-02T02:42:17.117Z,2.13
2022-08-02T02:43:20.870Z,2.95
2022-08-02T02:44:23.791Z,2.25
2022-08-02T02:45:26.995Z,2.55
2022-08-02T02:46:33.400Z,2.25
2022-08-02T02:47:40.517Z,2.38
2022-08-02T02:48:43.905Z,2.03
2022-08-02T02:49:48.164Z,2.40
2022-08-02T02:50:51.458Z,2.23
2022-08-02T02:51:54.301Z,2.47
2022-08-02T02:52:57.093Z,2.10
2022-08-02T02:54:32.849Z,2.42
2022-08-02T02:55:23.129Z,2.13
2022-08-02T02:56:25.889Z,2.40
2022-08-02T02:57:28.069Z,2.42
2022-08-02T02:59:49.616Z,2.47
2022-08-02T03:01:10.908Z,2.53
2022-08-02T03:02:14.607Z,2.40
2022-08-02T03:03:19.732Z,2.08
2022-08-02T03:04:24.549Z,2.00
2022-08-02T03:05:27.075Z,2.42
2022-08-02T03:06:30.416Z,2.30
2022-08-02T03:07:35.775Z,2.67
2022-08-02T03:08:37.872Z,2.13
2022-08-02T03:09:40.002Z,2.10
2022-08-02T03:10:46.930Z,2.42
2022-08-02T03:11:49.097Z,2.22
2022-08-02T03:12:53.751Z,2.20
2022-08-02T03:13:59.614Z,2.58
2022-08-02T03:15:05.792Z,2.72
2022-08-02T03:16:08.106Z,2.10
2022-08-02T03:17:11.812Z,2.83
2022-08-02T03:18:39.212Z,2.47
2022-08-02T03:19:41.126Z,2.20
2022-08-02T03:20:42.935Z,2.63
2022-08-02T03:21:46.110Z,2.85
2022-08-02T03:22:48.337Z,4.20
2022-08-02T03:23:50.689Z,2.47
2022-08-02T03:24:52.498Z,2.40
2022-08-02T03:25:54.359Z,2.20
2022-08-02T03:26:56.500Z,2.40
2022-08-02T03:27:58.372Z,2.53
2022-08-02T03:29:00.215Z,2.30
2022-08-02T03:30:13.574Z,2.72
2022-08-02T03:31:15.582Z,2.22
2022-08-02T03:32:17.427Z,2.55
2022-08-02T03:33:20.835Z,2.25
2022-08-02T03:34:23.421Z,2.23
2022-08-02T03:35:27.661Z,2.35
2022-08-02T03:36:32.931Z,2.53
2022-08-02T03:37:36.864Z,2.15
2022-08-02T03:38:39.219Z,3.15
2022-08-02T03:39:49.667Z,2.88
2022-08-02T03:40:56.315Z,2.20
2022-08-02T03:41:58.772Z,2.30
2022-08-02T03:43:02.314Z,2.53
2022-08-02T03:44:06.820Z,2.40
2022-08-02T03:45:11.420Z,2.67
2022-08-02T03:46:18.054Z,2.75
2022-08-02T03:47:21.098Z,2.40
2022-08-02T03:48:34.556Z,2.20
2022-08-02T03:49:37.710Z,2.63
2022-08-02T03:50:40.079Z,2.97
2022-08-02T03:51:42.158Z,2.35
2022-08-02T03:52:47.587Z,2.50
2022-08-02T03:53:50.893Z,2.30
2022-08-02T03:54:52.801Z,2.67
2022-08-02T03:55:55.922Z,2.77
2022-08-02T03:56:58.241Z,2.20
2022-08-02T03:58:00.541Z,2.53
2022-08-02T03:59:08.347Z,2.60
2022-08-02T04:00:13.915Z,2.17
2022-08-02T04:01:15.903Z,2.63
2022-08-02T04:02:17.788Z,3.05
2022-08-02T04:03:19.888Z,2.60
2022-08-02T04:04:22.740Z,2.47
2022-08-02T04:05:25.572Z,3.22
2022-08-02T04:06:28.546Z,2.53
2022-08-02T04:08:34.574Z,2.67
2022-08-02T04:08:54.039Z,2.17
2022-08-02T04:09:55.972Z,2.88
2022-08-02T04:11:16.510Z,3.20
2022-08-02T04:12:18.389Z,2.63
2022-08-02T04:13:21.349Z,2.63
2022-08-02T04:14:24.795Z,2.50
2022-08-02T04:15:26.638Z,2.60
2022-08-02T04:16:46.038Z,3.03
2022-08-02T04:17:56.607Z,2.70
2022-08-02T04:19:02.337Z,2.78
2022-08-02T04:20:10.060Z,3.08
2022-08-02T04:21:15.733Z,2.92
2022-08-02T04:22:23.748Z,3.30
2022-08-02T04:23:27.192Z,2.70
2022-08-02T04:24:34.711Z,2.85
2022-08-02T04:25:40.295Z,2.92
2022-08-02T04:26:44.778Z,3.22
2022-08-02T04:28:16.767Z,2.90
2022-08-02T04:29:16.093Z,2.97
2022-08-02T04:30:19.012Z,2.70
2022-08-02T04:31:22.248Z,2.70
2022-08-02T04:32:27.638Z,2.50
2022-08-02T04:33:30.803Z,2.72
2022-08-02T04:34:32.768Z,2.80
2022-08-02T04:35:34.925Z,2.65
2022-08-02T04:36:38.084Z,2.60
2022-08-02T04:38:05.702Z,2.70
2022-08-02T04:39:02.621Z,2.60
2022-08-02T04:40:09.590Z,2.50
2022-08-02T04:41:11.455Z,2.60
2022-08-02T04:42:21.606Z,2.50
2022-08-02T04:43:24.190Z,2.92
2022-08-02T04:44:26.262Z,3.00
2022-08-02T04:45:29.673Z,2.97
2022-08-02T04:46:32.044Z,2.80
2022-08-02T04:48:03.369Z,3.00
2022-08-02T04:48:56.113Z,2.95
2022-08-02T04:49:58.038Z,2.70
2022-08-02T04:51:00.409Z,2.73
2022-08-02T04:52:02.260Z,2.63
2022-08-02T04:53:04.290Z,2.85
2022-08-02T04:54:09.996Z,2.50
2022-08-02T04:55:12.247Z,3.08
2022-08-02T04:56:14.095Z,2.75
2022-08-02T04:57:34.303Z,2.60
2022-08-02T04:58:40.571Z,2.85
2022-08-02T04:59:43.055Z,3.35
2022-08-02T05:00:45.062Z,3.00
2022-08-02T05:01:46.934Z,3.00
2022-08-02T05:02:49.242Z,2.80
2022-08-02T05:03:52.017Z,2.40
2022-08-02T05:06:33.359Z,3.10
2022-08-02T05:07:36.011Z,3.05
2022-08-02T05:08:38.386Z,2.83
2022-08-02T05:09:40.336Z,3.10
2022-08-02T05:10:42.266Z,2.97
2022-08-02T05:11:44.160Z,3.53
2022-08-02T05:12:56.790Z,2.97
2022-08-02T05:13:59.541Z,3.13
2022-08-02T05:15:01.415Z,3.03
2022-08-02T05:16:04.635Z,2.97
2022-08-02T05:17:06.823Z,3.15
2022-08-02T05:18:08.791Z,2.80
2022-08-02T05:19:39.520Z,3.42
2022-08-02T05:20:45.738Z,2.75
2022-08-02T05:21:47.763Z,3.08
2022-08-02T05:22:49.694Z,3.85
2022-08-02T05:23:51.546Z,3.13
2022-08-02T05:24:53.577Z,3.15
2022-08-02T05:25:55.534Z,3.38
2022-08-02T05:26:57.415Z,3.38
2022-08-02T05:27:59.356Z,3.10
2022-08-02T05:29:01.245Z,3.17
2022-08-02T05:30:05.806Z,3.85
2022-08-02T05:31:07.718Z,3.60
2022-08-02T05:32:15.448Z,3.10
2022-08-02T05:33:17.530Z,3.33
2022-08-02T05:34:19.406Z,3.20
2022-08-02T05:35:22.635Z,3.50
2022-08-02T05:36:24.512Z,3.40
2022-08-02T05:37:27.163Z,3.38
2022-08-02T05:39:04.686Z,3.95
2022-08-02T05:40:12.768Z,3.65
2022-08-02T05:41:15.133Z,2.95
2022-08-02T05:42:16.999Z,2.90
2022-08-02T05:43:18.914Z,3.33
2022-08-02T05:44:24.095Z,3.22
2022-08-02T05:45:26.218Z,3.83
2022-08-02T05:46:28.085Z,3.40
2022-08-02T05:47:30.073Z,3.28
2022-08-02T05:48:32.486Z,3.60
2022-08-02T05:49:34.434Z,3.90
2022-08-02T05:50:39.831Z,4.10
2022-08-02T05:52:07.655Z,3.05
2022-08-02T05:53:49.371Z,3.17
2022-08-02T05:54:59.565Z,3.33
2022-08-02T05:56:27.815Z,3.05
2022-08-02T05:58:18.072Z,3.80
2022-08-02T05:59:32.514Z,4.38
2022-08-02T06:00:36.397Z,3.53
2022-08-02T06:01:40.808Z,3.22
2022-08-02T06:03:07.570Z,2.58
2022-08-02T06:04:11.959Z,3.80
2022-08-02T06:05:19.268Z,3.88
2022-08-02T06:06:25.671Z,3.90
2022-08-02T06:07:28.141Z,5.15
2022-08-02T06:08:48.594Z,4.25
2022-08-02T06:09:51.715Z,4.13
2022-08-02T06:11:01.053Z,3.78
2022-08-02T06:12:04.536Z,4.20
2022-08-02T06:13:09.835Z,4.05
2022-08-02T06:14:17.738Z,3.90
2022-08-02T06:15:20.679Z,3.75
2022-08-02T06:16:31.777Z,3.35
2022-08-02T06:17:34.897Z,4.57
2022-08-02T06:18:44.337Z,4.63
2022-08-02T06:19:52.421Z,4.32
2022-08-02T06:20:58.704Z,4.73
2022-08-02T06:22:33.597Z,6.00
2022-08-02T06:23:57.651Z,5.38
2022-08-02T06:25:02.623Z,4.63
2022-08-02T06:26:06.781Z,4.90
2022-08-02T06:27:09.074Z,5.18
2022-08-02T06:28:13.879Z,4.93
2022-08-02T06:29:15.967Z,4.85
2022-08-02T06:30:17.885Z,4.68
2022-08-02T06:31:19.797Z,4.40
2022-08-02T06:32:22.121Z,4.83
2022-08-02T06:33:24.949Z,4.18
2022-08-02T06:34:27.006Z,4.47
2022-08-02T06:35:51.813Z,5.13
2022-08-02T06:37:09.027Z,4.90
2022-08-02T06:38:17.527Z,4.53
2022-08-02T06:39:32.364Z,4.90
2022-08-02T06:40:48.510Z,4.40
2022-08-02T06:41:52.161Z,5.55
2022-08-02T06:43:12.015Z,4.75
2022-08-02T06:44:45.618Z,6.33
2022-08-02T06:45:37.177Z,5.05
2022-08-02T06:47:09.970Z,6.88
2022-08-02T06:48:01.635Z,5.32
2022-08-02T06:49:22.473Z,5.80
2022-08-02T06:50:35.746Z,5.88
2022-08-02T06:51:37.676Z,4.93
2022-08-02T06:52:39.539Z,5.22
2022-08-02T06:53:49.296Z,5.88
2022-08-02T06:54:51.179Z,5.82
2022-08-02T06:55:53.050Z,5.80
2022-08-02T06:56:54.909Z,6.60
2022-08-02T06:57:56.763Z,6.80
2022-08-02T06:59:01.140Z,5.78
2022-08-02T07:00:09.618Z,5.55
2022-08-02T07:01:12.469Z,7.60
2022-08-02T07:02:14.603Z,6.18
2022-08-02T07:03:17.407Z,7.03
2022-08-02T07:04:20.331Z,6.13
2022-08-02T07:05:22.582Z,6.13
2022-08-02T07:06:24.418Z,7.80
2022-08-02T07:07:27.630Z,8.68
2022-08-02T07:08:32.671Z,7.50
2022-08-02T07:09:34.529Z,7.35
2022-08-02T07:10:36.383Z,6.38
2022-08-02T07:11:38.205Z,8.18
2022-08-02T07:12:40.519Z,8.27
2022-08-02T07:13:42.671Z,7.88
2022-08-02T07:14:46.603Z,7.75
2022-08-02T07:15:49.312Z,8.18
2022-08-02T07:16:51.510Z,8.50
2022-08-02T07:17:53.413Z,7.18
2022-08-02T07:18:55.323Z,7.72
2022-08-02T07:19:58.212Z,8.45
2022-08-02T07:21:00.108Z,8.25
2022-08-02T07:22:02.067Z,7.60
2022-08-02T07:23:04.012Z,7.97
2022-08-02T07:24:06.062Z,7.78
2022-08-02T07:25:08.976Z,7.90
2022-08-02T07:26:10.833Z,7.57
2022-08-02T07:27:13.340Z,6.87
2022-08-02T07:28:24.099Z,9.50
2022-08-02T07:29:29.033Z,8.70
2022-08-02T07:30:36.171Z,8.93
2022-08-02T07:31:38.082Z,9.32
2022-08-02T07:32:40.041Z,8.70
2022-08-02T07:33:47.181Z,8.70
2022-08-02T07:34:51.228Z,9.63
2022-08-02T07:35:57.397Z,9.98
2022-08-02T07:37:00.505Z,8.88
2022-08-02T07:38:03.204Z,8.73
2022-08-02T07:39:06.353Z,8.88
2022-08-02T07:40:13.993Z,9.00
2022-08-02T07:41:17.329Z,8.60
2022-08-02T07:42:19.194Z,9.02
2022-08-02T07:43:21.027Z,9.57
2022-08-02T07:44:24.036Z,9.77
2022-08-02T07:45:30.620Z,9.57
2022-08-02T07:46:33.385Z,8.43
2022-08-02T07:47:42.650Z,8.10
2022-08-02T07:48:49.328Z,8.60
2022-08-02T07:49:51.108Z,9.50
2022-08-02T07:50:52.978Z,9.70
2022-08-02T07:51:55.101Z,9.88
2022-08-02T07:52:57.482Z,9.25
2022-08-02T07:54:02.121Z,8.90
2022-08-02T07:55:06.343Z,10.43
2022-08-02T07:56:08.239Z,11.30
2022-08-02T07:57:10.446Z,10.38
2022-08-02T07:58:13.404Z,10.68
2022-08-02T07:59:16.640Z,10.67
2022-08-02T08:00:18.752Z,11.45
2022-08-02T08:01:20.841Z,10.60
2022-08-02T08:02:24.656Z,9.75
2022-08-02T08:03:26.512Z,9.57
2022-08-02T08:04:28.493Z,10.15
2022-08-02T08:05:30.341Z,9.55
2022-08-02T08:06:32.578Z,9.15
2022-08-02T08:07:34.985Z,10.35
2022-08-02T08:08:37.012Z,9.93
2022-08-02T08:09:42.230Z,8.73
2022-08-02T08:10:44.168Z,8.68
2022-08-02T08:11:46.301Z,7.53
2022-08-02T08:12:48.267Z,8.90
2022-08-02T08:13:50.378Z,9.02
2022-08-02T08:14:52.283Z,8.48
2022-08-02T08:15:54.174Z,8.38
2022-08-02T08:16:55.994Z,8.38
2022-08-02T08:17:58.387Z,8.25
2022-08-02T08:19:00.727Z,7.85
2022-08-02T08:20:04.562Z,8.03
2022-08-02T08:21:06.555Z,8.05
2022-08-02T08:22:08.362Z,7.13
2022-08-02T08:23:10.234Z,7.15
2022-08-02T08:24:12.214Z,6.03
2022-08-02T08:25:14.245Z,6.32
2022-08-02T08:26:16.317Z,4.82
2022-08-02T08:27:19.661Z,4.75
2022-08-02T08:28:21.558Z,5.30
2022-08-02T08:29:24.231Z,5.80
2022-08-02T08:30:26.328Z,6.00
2022-08-02T08:31:28.433Z,5.90
2022-08-02T08:32:30.393Z,5.40
2022-08-02T08:33:39.735Z,6.50
2022-08-02T08:34:41.629Z,5.88
2022-08-02T08:35:43.504Z,5.30
2022-08-02T08:36:45.391Z,5.70
2022-08-02T08:37:47.226Z,5.32
2022-08-02T08:38:50.261Z,5.13
2022-08-02T08:39:58.089Z,5.15
2022-08-02T08:41:01.092Z,4.70
2022-08-02T08:42:07.161Z,4.60
2022-08-02T08:43:09.015Z,4.40
2022-08-02T08:44:10.849Z,5.57
2022-08-02T08:45:12.708Z,4.88
2022-08-02T08:46:26.554Z,4.60
2022-08-02T08:47:39.653Z,4.40
2022-08-02T08:48:51.220Z,4.80
2022-08-02T08:49:57.165Z,4.55
2022-08-02T08:51:07.583Z,4.25
2022-08-02T08:52:12.158Z,4.37
2022-08-02T08:53:14.992Z,4.55
2022-08-02T08:54:19.065Z,4.65
2022-08-02T08:55:24.958Z,4.47
2022-08-02T08:56:33.988Z,5.40
2022-08-02T08:57:41.503Z,5.18
2022-08-02T08:58:47.877Z,4.90
2022-08-02T08:59:50.615Z,5.13
2022-08-02T09:00:53.143Z,5.03
2022-08-02T09:01:57.007Z,5.68
2022-08-02T09:03:02.066Z,5.50
2022-08-02T09:04:04.303Z,4.82
2022-08-02T09:05:10.687Z,5.30
2022-08-02T09:06:12.591Z,4.55
2022-08-02T09:07:14.383Z,5.53
2022-08-02T09:08:18.992Z,6.15
2022-08-02T09:09:20.806Z,5.10
2022-08-02T09:10:49.815Z,6.10
2022-08-02T09:11:51.757Z,6.53
2022-08-02T09:13:38.019Z,6.05
2022-08-02T09:14:50.100Z,4.97
2022-08-02T09:15:57.265Z,5.90
2022-08-02T09:17:10.898Z,5.95
2022-08-02T09:18:13.267Z,5.50
2022-08-02T09:19:26.703Z,5.85
2022-08-02T09:20:30.900Z,5.65
2022-08-02T09:21:37.706Z,6.60
2022-08-02T09:22:39.603Z,5.72
2022-08-02T09:23:48.334Z,5.90
2022-08-02T09:24:51.571Z,5.20
2022-08-02T09:26:07.633Z,4.50
2022-08-02T09:27:16.496Z,5.07
2022-08-02T09:28:18.424Z,5.50
2022-08-02T09:29:25.387Z,5.45
2022-08-02T09:30:28.553Z,4.65
2022-08-02T09:31:33.911Z,5.45
2022-08-02T09:32:46.576Z,5.45
2022-08-02T09:33:59.730Z,4.85
2022-08-02T09:35:02.989Z,5.10
2022-08-02T09:36:08.597Z,4.75
2022-08-02T09:37:28.646Z,5.07
2022-08-02T09:38:31.839Z,4.03
2022-08-02T09:39:47.607Z,5.32
2022-08-02T09:40:50.137Z,5.25
2022-08-02T09:41:53.284Z,6.85
2022-08-02T09:42:59.416Z,6.53
2022-08-02T09:44:06.189Z,6.45
2022-08-02T09:45:10.262Z,5.95
2022-08-02T09:46:14.525Z,5.00
2022-08-02T09:47:17.058Z,6.90
2022-08-02T09:48:20.753Z,5.50
2022-08-02T09:49:22.631Z,5.90
2022-08-02T09:50:24.625Z,5.55
2022-08-02T09:51:32.442Z,5.88
2022-08-02T09:52:43.282Z,6.00
2022-08-02T09:53:48.109Z,5.57
2022-08-02T09:55:26.145Z,5.55
2022-08-02T09:56:54.323Z,4.10
2022-08-02T09:58:35.297Z,5.70
2022-08-02T10:00:51.870Z,5.68
2022-08-02T10:02:17.646Z,4.93
2022-08-02T10:03:34.770Z,5.57
2022-08-02T10:04:53.011Z,4.80
2022-08-02T10:06:02.289Z,5.50
2022-08-02T10:07:05.943Z,5.00
2022-08-02T10:08:08.073Z,4.53
2022-08-02T10:09:11.672Z,4.32
2022-08-02T10:10:13.711Z,5.53
2022-08-02T10:11:16.892Z,5.20
2022-08-02T10:12:20.510Z,4.68
2022-08-02T10:13:22.897Z,4.60
2022-08-02T10:14:26.553Z,4.87
2022-08-02T10:15:28.665Z,3.70
2022-08-02T10:16:30.744Z,4.35
2022-08-02T10:17:32.635Z,4.38
2022-08-02T10:18:39.418Z,4.25
2022-08-02T10:20:01.800Z,3.70
2022-08-02T10:21:14.786Z,4.07
2022-08-02T10:22:19.918Z,3.72
2022-08-02T10:23:27.250Z,4.15
2022-08-02T10:24:41.773Z,3.40
2022-08-02T10:26:17.226Z,3.87
2022-08-02T10:27:55.459Z,3.10
2022-08-02T10:29:18.497Z,4.30
2022-08-02T10:33:05.807Z,3.15
2022-08-02T10:34:31.806Z,3.00
2022-08-02T10:36:06.797Z,3.10
2022-08-02T10:37:42.951Z,3.53
2022-08-02T10:38:47.635Z,3.42
2022-08-02T10:39:57.341Z,3.28
2022-08-02T10:40:59.968Z,3.60
2022-08-02T10:42:02.034Z,2.83
2022-08-02T10:43:03.949Z,3.17
2022-08-02T10:44:05.830Z,3.20
2022-08-02T10:45:12.291Z,2.83
2022-08-02T10:46:34.418Z,2.95
2022-08-02T10:47:36.430Z,2.67
2022-08-02T10:50:46.920Z,2.47
2022-08-02T10:52:00.736Z,2.38
2022-08-02T10:53:33.970Z,2.23
2022-08-02T10:54:50.497Z,2.10
2022-08-02T10:56:00.838Z,2.50
2022-08-02T10:57:36.486Z,1.95
2022-08-02T10:58:38.435Z,1.88
2022-08-02T10:59:40.302Z,1.88
2022-08-02T11:00:42.286Z,2.30
2022-08-02T11:01:44.560Z,2.80
2022-08-02T11:02:53.593Z,2.65
2022-08-02T11:03:59.905Z,2.30
2022-08-02T11:05:10.161Z,2.30
2022-08-02T11:06:25.060Z,1.70
2022-08-02T11:07:37.772Z,2.50
2022-08-02T11:08:40.623Z,2.83
2022-08-02T11:09:45.982Z,2.55
2022-08-02T11:10:48.248Z,2.42
2022-08-02T11:12:06.422Z,2.28
2022-08-02T11:13:17.309Z,2.70
2022-08-02T11:14:21.320Z,2.80
2022-08-02T11:15:23.363Z,2.45
2022-08-02T11:17:06.260Z,2.30
2022-08-02T11:18:08.095Z,2.47
2022-08-02T11:19:09.921Z,2.67
2022-08-02T11:20:12.057Z,2.35
2022-08-02T11:21:26.756Z,2.03
2022-08-02T11:22:28.630Z,2.00
2022-08-02T11:23:45.131Z,2.00
2022-08-02T11:24:47.980Z,2.03
2022-08-02T11:26:03.636Z,1.98
2022-08-02T11:27:22.362Z,2.03
2022-08-02T11:28:26.073Z,2.13
2022-08-02T11:29:40.263Z,2.10
2022-08-02T11:30:42.503Z,1.92
2022-08-02T11:31:46.086Z,1.90
2022-08-02T11:32:49.160Z,1.73
2022-08-02T11:33:51.725Z,1.77
2022-08-02T11:39:51.071Z,1.90
2022-08-02T11:40:57.332Z,2.00
2022-08-02T11:42:01.129Z,1.88
2022-08-02T11:43:03.103Z,2.10
2022-08-02T11:44:05.198Z,2.08
2022-08-02T11:45:11.858Z,2.00
2022-08-02T11:46:23.372Z,1.95
2022-08-02T11:47:25.208Z,2.28
2022-08-02T11:48:34.928Z,2.03
2022-08-02T11:49:37.774Z,2.58
2022-08-02T11:50:39.843Z,2.15
2022-08-02T11:52:10.238Z,2.33
2022-08-02T11:53:16.789Z,2.22
2022-08-02T11:54:29.763Z,2.10
2022-08-02T11:55:32.494Z,2.22
2022-08-02T11:56:34.392Z,2.50
2022-08-02T11:58:02.818Z,2.47
2022-08-02T11:59:03.945Z,2.20
2022-08-02T12:00:16.304Z,1.70
2022-08-02T12:01:18.084Z,2.00
2022-08-02T12:02:25.859Z,1.52
2022-08-02T12:03:43.156Z,2.00
2022-08-02T12:04:52.613Z,2.20
2022-08-02T12:06:05.454Z,2.00
2022-08-02T12:07:09.188Z,1.70
2022-08-02T12:08:11.125Z,1.67
2022-08-02T12:09:18.202Z,1.65
2022-08-02T12:10:24.014Z,2.05
2022-08-02T12:11:25.803Z,1.80
2022-08-02T12:12:58.240Z,1.83
2022-08-02T12:14:04.860Z,1.80
2022-08-02T12:15:09.973Z,1.63
2022-08-02T12:16:31.855Z,1.55
2022-08-02T12:17:52.307Z,1.75
2022-08-02T12:19:14.443Z,1.67
2022-08-02T12:20:17.356Z,1.45
2022-08-02T12:21:24.564Z,1.40
2022-08-02T12:22:27.789Z,1.65
2022-08-02T12:23:30.069Z,1.63
2022-08-02T12:24:32.034Z,1.60
2022-08-02T12:25:35.459Z,1.40
2022-08-02T12:26:47.991Z,2.00
2022-08-02T12:27:53.301Z,2.08
2022-08-02T12:28:59.815Z,1.85
2022-08-02T12:30:14.197Z,2.10
2022-08-02T12:31:18.218Z,1.90
2022-08-02T12:32:24.769Z,1.85
2022-08-02T12:33:29.229Z,1.98
2022-08-02T12:34:34.292Z,2.00
2022-08-02T12:35:36.207Z,1.63
2022-08-02T12:36:39.959Z,1.55
2022-08-02T12:37:47.915Z,1.50
2022-08-02T12:38:54.392Z,1.80
2022-08-02T12:39:56.365Z,1.63
2022-08-02T12:41:31.129Z,1.70
2022-08-02T12:42:47.526Z,1.90
2022-08-02T12:43:52.867Z,1.90
2022-08-02T12:45:00.512Z,1.80
2022-08-02T12:46:02.629Z,1.70
2022-08-02T12:47:07.622Z,1.52
2022-08-02T12:48:09.774Z,1.70
2022-08-02T12:49:18.321Z,1.70
2022-08-02T12:50:24.992Z,1.42
2022-08-02T12:51:55.630Z,1.70
2022-08-02T12:53:16.135Z,1.90
2022-08-02T12:54:27.431Z,1.98
2022-08-02T12:56:01.108Z,2.50
2022-08-02T12:56:57.678Z,2.00
2022-08-02T12:58:02.657Z,2.20
2022-08-02T12:59:04.640Z,1.88
2022-08-02T13:00:07.094Z,2.07
2022-08-02T13:01:11.128Z,2.20
2022-08-02T13:02:15.015Z,2.45
2022-08-02T13:04:11.629Z,2.20
2022-08-02T13:04:39.088Z,2.05
2022-08-02T13:05:57.023Z,1.92
2022-08-02T13:07:01.800Z,1.58
2022-08-02T13:08:04.619Z,1.90
2022-08-02T13:09:15.597Z,1.67
2022-08-02T13:10:18.502Z,1.90
2022-08-02T13:11:21.176Z,2.10
2022-08-02T13:12:23.167Z,1.40
2022-08-02T13:13:24.919Z,1.90
2022-08-02T13:14:26.847Z,1.80
2022-08-02T13:15:48.834Z,1.67
2022-08-02T13:16:51.533Z,1.63
2022-08-02T13:17:53.774Z,1.60
2022-08-02T13:18:55.571Z,1.50
2022-08-02T13:19:57.372Z,1.90
2022-08-02T13:20:59.318Z,2.10
2022-08-02T13:22:03.964Z,1.63
2022-08-02T13:23:06.105Z,1.80
2022-08-02T13:24:17.607Z,1.50
2022-08-02T13:25:30.195Z,1.30
2022-08-02T13:26:31.981Z,1.42
2022-08-02T13:27:35.199Z,1.30
2022-08-02T13:28:39.045Z,1.42
2022-08-02T13:29:40.999Z,1.70
2022-08-02T13:30:43.326Z,1.50
2022-08-02T13:31:45.208Z,1.48
2022-08-02T13:32:47.209Z,1.30
2022-08-02T13:33:49.547Z,1.30
2022-08-02T13:34:51.729Z,1.50
2022-08-02T13:35:53.548Z,1.48
2022-08-02T13:36:55.461Z,1.30
2022-08-02T13:37:57.391Z,1.60
2022-08-02T13:38:59.356Z,1.33
2022-08-02T13:40:20.635Z,1.30
2022-08-02T13:41:23.230Z,1.50
2022-08-02T13:42:25.263Z,1.42
2022-08-02T13:43:27.277Z,1.30
2022-08-02T13:44:49.486Z,1.13
2022-08-02T13:45:51.583Z,1.40
2022-08-02T13:46:53.410Z,1.50
2022-08-02T13:48:02.539Z,1.63
2022-08-02T13:49:07.603Z,1.85
2022-08-02T13:50:09.839Z,1.30
2022-08-02T13:51:14.850Z,1.42
2022-08-02T13:52:17.246Z,1.67
2022-08-02T13:53:19.481Z,1.63
2022-08-02T13:54:21.333Z,1.40
2022-08-02T13:55:23.182Z,1.63
2022-08-02T13:56:35.396Z,1.70
2022-08-02T13:57:37.861Z,1.63
2022-08-02T13:58:39.639Z,1.52
2022-08-02T13:59:56.759Z,1.30
2022-08-02T14:01:00.630Z,1.60
2022-08-02T14:02:02.752Z,1.58
2022-08-02T14:03:06.702Z,2.53
2022-08-02T14:04:09.642Z,2.20
2022-08-02T14:05:11.984Z,1.87
2022-08-02T14:06:13.970Z,1.60
2022-08-02T14:07:16.191Z,1.52
2022-08-02T14:08:19.767Z,2.00
2022-08-02T14:09:21.733Z,1.50
2022-08-02T14:10:25.955Z,1.70
2022-08-02T14:11:32.236Z,1.60
2022-08-02T14:12:34.370Z,1.60
2022-08-02T14:13:36.485Z,1.50
2022-08-02T14:14:38.570Z,1.88
2022-08-02T14:15:40.544Z,1.50
2022-08-02T14:16:42.414Z,1.70
2022-08-02T14:17:46.583Z,1.70
2022-08-02T14:18:51.575Z,2.00
2022-08-02T14:19:53.478Z,1.90
2022-08-02T14:20:55.443Z,1.50
2022-08-02T14:22:10.535Z,1.50
2022-08-02T14:23:14.149Z,2.05
2022-08-02T14:24:21.074Z,2.20
2022-08-02T14:25:22.916Z,2.10
2022-08-02T14:26:27.179Z,1.63
2022-08-02T14:27:31.167Z,1.97
2022-08-02T14:28:41.500Z,1.73
2022-08-02T14:29:43.299Z,1.90
2022-08-02T14:30:45.377Z,2.13
2022-08-02T14:31:47.277Z,2.05
2022-08-02T14:32:49.228Z,1.70
2022-08-02T14:33:51.087Z,2.55
2022-08-02T14:34:53.264Z,1.80
2022-08-02T14:35:55.542Z,2.17
2022-08-02T14:36:58.673Z,2.60
2022-08-02T14:38:00.594Z,2.10
2022-08-02T14:39:02.447Z,2.05
2022-08-02T14:40:04.943Z,2.15
2022-08-02T14:41:06.796Z,1.80
2022-08-02T14:42:08.781Z,2.05
2022-08-02T14:43:10.651Z,1.83
2022-08-02T14:44:12.504Z,1.60
2022-08-02T14:45:15.212Z,1.60
2022-08-02T14:46:17.159Z,1.80
2022-08-02T14:47:19.397Z,2.10
2022-08-02T14:48:21.219Z,2.17
2022-08-02T14:49:26.096Z,2.17
2022-08-02T14:50:28.964Z,1.75
2022-08-02T14:51:31.904Z,1.83
2022-08-02T14:52:33.886Z,2.03
2022-08-02T14:53:37.997Z,1.73
2022-08-02T14:54:52.034Z,2.00
2022-08-02T14:55:53.871Z,1.60
2022-08-02T14:56:56.928Z,1.80
2022-08-02T14:57:58.709Z,1.97
2022-08-02T14:59:01.053Z,2.70
2022-08-02T15:00:03.875Z,1.80
2022-08-02T15:01:05.783Z,2.00